Time;durP1;ratioP1;P1;durP2;ratioP2;P2;SDS_P1;SDS_P2;PMS_P1;PMS_P2;Temp;Humidity;BMP_temperature;BMP_pressure;BME280_temperature;BME280_humidity;BME280_pressure;Samples;Min_cycle;Max_cycle;Signal;HPM_P1;HPM_P2
2020/12/16 00:01:08;;;;;;;24.13;15.80;;;9.10;95.40;;;;;;5007961;28;20022;-73
2020/12/16 00:03:33;;;;;;;25.50;16.02;;;9.10;95.50;;;;;;5008797;28;20072;-73
2020/12/16 00:05:59;;;;;;;26.67;16.13;;;9.10;95.60;;;;;;5009924;28;20257;-74
2020/12/16 00:08:25;;;;;;;28.95;16.38;;;9.00;95.60;;;;;;4990234;28;20113;-73
2020/12/16 00:10:51;;;;;;;26.50;16.00;;;9.10;95.70;;;;;;5007073;28;20397;-73
2020/12/16 00:13:16;;;;;;;28.15;16.02;;;9.10;95.60;;;;;;5010322;28;20033;-73
2020/12/16 00:15:44;;;;;;;25.42;15.25;;;9.00;95.60;;;;;;5008734;28;20064;-74
2020/12/16 00:18:10;;;;;;;27.38;15.95;;;9.10;95.70;;;;;;5010088;28;20098;-73
2020/12/16 00:20:35;;;;;;;29.73;16.15;;;9.10;95.70;;;;;;4989731;28;20041;-73
2020/12/16 00:23:01;;;;;;;28.23;17.17;;;9.00;95.70;;;;;;5008388;28;20116;-73
2020/12/16 00:25:27;;;;;;;29.40;17.63;;;9.10;95.70;;;;;;4973026;28;20500;-74
2020/12/16 00:27:53;;;;;;;29.60;16.75;;;9.10;95.60;;;;;;5009277;28;20038;-73
2020/12/16 00:30:19;;;;;;;29.50;17.17;;;9.00;95.60;;;;;;5009558;28;20393;-73
2020/12/16 00:32:44;;;;;;;27.80;15.95;;;9.10;95.60;;;;;;4975863;28;20504;-73
2020/12/16 00:35:10;;;;;;;25.85;14.98;;;9.00;95.60;;;;;;4990339;28;20032;-73
2020/12/16 00:37:38;;;;;;;28.55;15.85;;;9.00;95.60;;;;;;5010049;28;20076;-73
2020/12/16 00:40:05;;;;;;;33.13;17.63;;;9.10;95.70;;;;;;5008842;28;20026;-74
2020/12/16 00:42:31;;;;;;;30.45;17.42;;;9.10;95.60;;;;;;5009944;28;20053;-73
2020/12/16 00:44:57;;;;;;;30.02;17.27;;;9.10;95.50;;;;;;4975541;28;20481;-73
2020/12/16 00:47:22;;;;;;;33.00;17.80;;;9.10;95.50;;;;;;5007599;28;20037;-73
2020/12/16 00:49:48;;;;;;;32.60;17.77;;;9.10;95.60;;;;;;5009749;28;20037;-73
2020/12/16 00:52:14;;;;;;;31.05;18.08;;;9.10;95.80;;;;;;5007466;28;20038;-73
2020/12/16 00:54:40;;;;;;;33.03;17.50;;;9.10;95.60;;;;;;5009572;28;20437;-74
2020/12/16 00:57:05;;;;;;;29.42;16.85;;;9.00;95.60;;;;;;4973687;28;20026;-73
2020/12/16 00:59:31;;;;;;;37.30;19.23;;;9.00;95.60;;;;;;4992207;28;20401;-73
2020/12/16 01:01:57;;;;;;;35.65;18.38;;;9.10;95.60;;;;;;5010756;28;20469;-74
2020/12/16 01:04:22;;;;;;;35.47;18.60;;;9.10;95.70;;;;;;4995775;28;20066;-74
2020/12/16 01:06:48;;;;;;;37.97;19.23;;;9.10;95.60;;;;;;4995943;28;20108;-73
2020/12/16 01:09:14;;;;;;;33.97;18.60;;;9.10;95.60;;;;;;4994893;28;20466;-73
2020/12/16 01:11:40;;;;;;;39.15;20.95;;;9.10;95.60;;;;;;4977102;28;20540;-73
2020/12/16 01:14:06;;;;;;;35.20;18.98;;;9.10;95.60;;;;;;5013597;28;20504;-73
2020/12/16 01:16:34;;;;;;;39.00;21.42;;;9.10;95.60;;;;;;4994488;28;20080;-73
2020/12/16 01:19:00;;;;;;;37.90;19.25;;;9.10;95.60;;;;;;5012155;28;20029;-73
2020/12/16 01:21:25;;;;;;;34.10;19.50;;;9.10;95.60;;;;;;5010874;28;20030;-73
2020/12/16 01:23:51;;;;;;;38.13;19.45;;;9.00;95.60;;;;;;4994383;28;20041;-73
2020/12/16 01:26:17;;;;;;;33.55;19.00;;;9.10;95.60;;;;;;5012465;28;20033;-73
2020/12/16 01:28:42;;;;;;;40.45;21.13;;;9.10;95.50;;;;;;5011569;28;20033;-73
2020/12/16 01:31:08;;;;;;;38.55;20.20;;;9.10;95.50;;;;;;4994743;28;20116;-73
2020/12/16 01:33:34;;;;;;;37.60;20.58;;;9.10;95.50;;;;;;4993914;28;20042;-73
2020/12/16 01:35:59;;;;;;;38.45;19.38;;;9.10;95.40;;;;;;4978991;28;20129;-74
2020/12/16 01:38:25;;;;;;;36.80;19.52;;;9.10;95.40;;;;;;5011426;28;20025;-73
2020/12/16 01:40:51;;;;;;;36.15;19.02;;;9.10;95.40;;;;;;5010366;28;20100;-74
2020/12/16 01:43:16;;;;;;;36.97;18.85;;;9.10;95.40;;;;;;5012778;28;20030;-73
2020/12/16 01:45:42;;;;;;;35.28;18.75;;;9.10;95.40;;;;;;4994495;28;20458;-73
2020/12/16 01:48:08;;;;;;;33.30;17.73;;;9.10;95.40;;;;;;5011209;28;20036;-73
2020/12/16 01:50:33;;;;;;;33.58;18.42;;;9.10;95.40;;;;;;4977151;28;20532;-74
2020/12/16 01:53:00;;;;;;;39.03;19.35;;;9.10;95.40;;;;;;4978010;28;20033;-74
2020/12/16 01:55:27;;;;;;;34.25;17.88;;;9.10;95.40;;;;;;5011196;28;20152;-74
2020/12/16 01:58:05;;;;;;;36.83;18.25;;;9.10;95.30;;;;;;5010484;28;20029;-73
2020/12/16 02:00:31;;;;;;;34.88;18.25;;;9.10;95.30;;;;;;4993607;28;20045;-74
2020/12/16 02:03:00;;;;;;;35.83;17.85;;;9.10;95.40;;;;;;4994467;28;20531;-73
2020/12/16 02:05:26;;;;;;;34.53;18.40;;;9.10;95.40;;;;;;5010462;28;20030;-73
2020/12/16 02:07:55;;;;;;;34.00;18.00;;;9.10;95.40;;;;;;5011366;28;20490;-73
2020/12/16 02:10:21;;;;;;;33.25;16.83;;;9.10;95.40;;;;;;4992904;28;20025;-73
2020/12/16 02:12:47;;;;;;;31.83;16.52;;;9.10;95.40;;;;;;5011020;28;20088;-73
2020/12/16 02:15:13;;;;;;;33.45;17.73;;;9.10;95.40;;;;;;5011663;28;20061;-73
2020/12/16 02:17:38;;;;;;;36.42;18.55;;;9.10;95.60;;;;;;5010582;28;20441;-73
2020/12/16 02:20:06;;;;;;;33.40;18.30;;;9.10;95.40;;;;;;4977425;28;20482;-73
2020/12/16 02:22:32;;;;;;;34.42;18.30;;;9.10;95.40;;;;;;5008654;28;20034;-73
2020/12/16 02:25:13;;;;;;;32.83;16.98;;;9.10;95.40;;;;;;5009474;28;20025;-73
2020/12/16 02:27:40;;;;;;;36.70;17.85;;;9.10;95.40;;;;;;5009609;28;20026;-73
2020/12/16 02:30:08;;;;;;;32.05;17.48;;;9.00;95.30;;;;;;5010001;28;20053;-73
2020/12/16 02:32:34;;;;;;;29.52;16.75;;;9.10;95.30;;;;;;5009274;28;20378;-73
2020/12/16 02:35:00;;;;;;;32.05;16.52;;;9.10;95.30;;;;;;5009370;28;20033;-74
2020/12/16 02:37:26;;;;;;;32.17;16.17;;;9.10;95.40;;;;;;5011551;28;20021;-73
2020/12/16 02:39:52;;;;;;;31.13;16.00;;;9.10;95.40;;;;;;5005977;28;20501;-73
2020/12/16 02:42:29;;;;;;;33.97;17.23;;;9.10;95.40;;;;;;4976051;28;20030;-73
2020/12/16 02:44:57;;;;;;;34.95;18.08;;;9.10;95.40;;;;;;5009751;28;20030;-73
2020/12/16 02:47:23;;;;;;;29.73;16.65;;;9.10;95.30;;;;;;4992583;28;20029;-73
2020/12/16 02:49:49;;;;;;;29.85;16.17;;;9.10;95.30;;;;;;5021020;28;20046;-74
2020/12/16 02:52:14;;;;;;;34.67;17.42;;;9.10;95.40;;;;;;5010336;28;20142;-73
2020/12/16 02:54:40;;;;;;;36.72;18.40;;;9.10;95.30;;;;;;4976446;28;20128;-74
2020/12/16 02:57:06;;;;;;;36.40;17.70;;;9.10;95.00;;;;;;5008772;28;20021;-73
2020/12/16 02:59:32;;;;;;;37.55;18.90;;;9.10;95.00;;;;;;4991665;28;20241;-74
2020/12/16 03:01:58;;;;;;;32.28;16.60;;;9.10;95.00;;;;;;4991666;28;20021;-74
2020/12/16 03:04:25;;;;;;;32.40;16.35;;;9.10;95.00;;;;;;4976456;28;20041;-74
2020/12/16 03:06:54;;;;;;;32.22;16.85;;;9.10;95.10;;;;;;4991707;28;20110;-74
2020/12/16 03:09:24;;;;;;;34.28;17.23;;;9.10;95.20;;;;;;5010926;28;20478;-74
2020/12/16 03:11:55;;;;;;;32.83;16.00;;;9.10;95.20;;;;;;4974211;28;20489;-74
2020/12/16 03:14:22;;;;;;;32.28;16.92;;;9.10;95.20;;;;;;4992984;28;20563;-74
2020/12/16 03:16:48;;;;;;;31.83;15.52;;;9.10;95.20;;;;;;4993055;28;20232;-74
2020/12/16 03:19:15;;;;;;;29.92;15.73;;;9.10;95.30;;;;;;4999758;28;20089;-74
2020/12/16 03:21:42;;;;;;;37.63;18.88;;;9.20;95.40;;;;;;5005951;28;20040;-74
2020/12/16 03:24:07;;;;;;;34.88;17.85;;;9.20;95.40;;;;;;5008429;28;20022;-74
2020/12/16 03:26:33;;;;;;;33.97;17.10;;;9.10;95.30;;;;;;5008011;28;20551;-74
2020/12/16 03:28:59;;;;;;;32.92;17.02;;;9.10;95.30;;;;;;4990552;28;20437;-74
2020/12/16 03:31:25;;;;;;;39.58;20.27;;;9.10;95.30;;;;;;4992198;28;20128;-74
2020/12/16 03:33:50;;;;;;;42.05;19.98;;;9.10;95.30;;;;;;5009130;28;20226;-74
2020/12/16 03:36:18;;;;;;;37.45;19.23;;;9.10;95.30;;;;;;4992471;28;20490;-74
2020/12/16 03:38:46;;;;;;;46.50;22.23;;;9.10;95.20;;;;;;5010656;28;20116;-74
2020/12/16 03:41:14;;;;;;;43.92;21.08;;;9.20;95.20;;;;;;4976585;28;20022;-74
2020/12/16 03:43:40;;;;;;;39.22;20.13;;;9.20;95.20;;;;;;4989961;28;20117;-74
2020/12/16 03:46:09;;;;;;;41.30;20.92;;;9.10;95.10;;;;;;5010434;28;20535;-74
2020/12/16 03:48:36;;;;;;;38.83;21.10;;;9.10;95.20;;;;;;4977280;28;20026;-74
2020/12/16 03:51:12;;;;;;;41.10;21.95;;;9.10;95.20;;;;;;5007783;28;20049;-74
2020/12/16 03:53:39;;;;;;;40.78;20.85;;;9.10;95.20;;;;;;4991807;28;20512;-74
2020/12/16 03:56:10;;;;;;;41.25;20.45;;;9.10;95.20;;;;;;4975068;28;20026;-74
2020/12/16 03:58:39;;;;;;;41.60;20.20;;;9.10;95.10;;;;;;5008996;28;20516;-74
2020/12/16 04:01:06;;;;;;;38.05;18.73;;;9.10;95.10;;;;;;4990837;28;20049;-74
2020/12/16 04:03:32;;;;;;;41.85;20.38;;;9.10;95.10;;;;;;5008707;28;20107;-74
2020/12/16 04:05:59;;;;;;;39.03;18.90;;;9.10;95.10;;;;;;4976619;28;20034;-74
2020/12/16 04:08:25;;;;;;;38.30;19.23;;;9.10;95.10;;;;;;4975401;28;20034;-74
2020/12/16 04:10:51;;;;;;;39.33;19.48;;;9.10;95.10;;;;;;5006870;28;20038;-74
2020/12/16 04:13:17;;;;;;;42.92;20.38;;;9.10;95.20;;;;;;5008928;28;20479;-74
2020/12/16 04:15:44;;;;;;;39.42;20.30;;;9.10;95.10;;;;;;5008811;28;20112;-74
2020/12/16 04:18:10;;;;;;;40.15;20.83;;;9.10;95.10;;;;;;5007661;28;20026;-74
2020/12/16 04:20:36;;;;;;;38.03;19.48;;;9.10;95.10;;;;;;5009603;28;20502;-74
2020/12/16 04:23:03;;;;;;;42.90;21.42;;;9.10;95.00;;;;;;5008487;28;20552;-74
2020/12/16 04:25:28;;;;;;;43.45;20.17;;;9.20;95.10;;;;;;4976691;28;20453;-74
2020/12/16 04:27:54;;;;;;;41.65;19.33;;;9.20;94.90;;;;;;5007565;28;20117;-74
2020/12/16 04:30:20;;;;;;;35.42;18.65;;;9.20;95.00;;;;;;5007894;28;20363;-74
2020/12/16 04:32:51;;;;;;;38.28;18.50;;;9.20;95.00;;;;;;4990722;28;20378;-74
2020/12/16 04:35:17;;;;;;;39.85;20.00;;;9.20;95.10;;;;;;4993155;28;20026;-74
2020/12/16 04:37:46;;;;;;;43.42;19.75;;;9.20;95.20;;;;;;4980096;28;20030;-74
2020/12/16 04:40:12;;;;;;;40.60;19.42;;;9.20;95.20;;;;;;4979685;28;20079;-74
2020/12/16 04:42:39;;;;;;;39.70;18.85;;;9.20;95.20;;;;;;5011339;28;20022;-73
2020/12/16 04:45:04;;;;;;;36.88;18.73;;;9.20;95.20;;;;;;5010274;28;20117;-74
2020/12/16 04:47:30;;;;;;;38.85;18.77;;;9.10;95.20;;;;;;5010898;28;20101;-74
2020/12/16 04:49:56;;;;;;;38.83;18.42;;;9.10;95.20;;;;;;5010342;28;20018;-74
2020/12/16 04:52:25;;;;;;;38.47;18.85;;;9.20;95.20;;;;;;5011820;28;20398;-74
2020/12/16 04:54:51;;;;;;;35.22;17.63;;;9.20;95.30;;;;;;4978423;28;20038;-74
2020/12/16 04:57:16;;;;;;;38.53;19.88;;;9.10;95.20;;;;;;5011309;28;20032;-74
2020/12/16 04:59:42;;;;;;;36.45;19.75;;;9.20;95.20;;;;;;4979224;28;20034;-74
2020/12/16 05:02:08;;;;;;;37.95;18.40;;;9.20;95.10;;;;;;5000929;28;20030;-74
2020/12/16 05:04:33;;;;;;;41.08;20.67;;;9.20;95.20;;;;;;4992843;28;20397;-74
2020/12/16 05:06:59;;;;;;;38.80;19.35;;;9.20;95.20;;;;;;5011745;28;20044;-74
2020/12/16 05:09:25;;;;;;;38.78;19.63;;;9.20;95.20;;;;;;4977421;28;20401;-74
2020/12/16 05:11:52;;;;;;;32.65;17.48;;;9.10;95.20;;;;;;4995250;28;20080;-74
2020/12/16 05:14:23;;;;;;;37.75;18.90;;;9.20;95.30;;;;;;5010433;28;20025;-74
2020/12/16 05:16:57;;;;;;;36.70;19.15;;;9.10;95.20;;;;;;5010513;28;20040;-74
2020/12/16 05:19:45;;;;;;;40.65;19.02;;;9.20;95.20;;;;;;4994284;28;20066;-74
2020/12/16 05:22:26;;;;;;;33.38;17.30;;;9.20;95.30;;;;;;5010333;28;20482;-74
2020/12/16 05:24:57;;;;;;;39.53;19.25;;;9.20;95.30;;;;;;4993790;28;20035;-74
2020/12/16 05:27:25;;;;;;;;;;;9.20;95.30;;;;;;4995899;28;20121;-74
2020/12/16 05:30:06;;;;;;;36.78;17.63;;;9.10;95.20;;;;;;5012150;28;19916;-74
2020/12/16 05:32:36;;;;;;;40.90;19.23;;;9.20;95.30;;;;;;4993203;28;20077;-74
2020/12/16 05:35:24;;;;;;;40.03;19.83;;;9.10;95.20;;;;;;5011544;28;20566;-74
2020/12/16 05:37:50;;;;;;;40.50;20.15;;;9.20;95.20;;;;;;4993043;28;20374;-74
2020/12/16 05:40:20;;;;;;;39.15;19.63;;;9.10;95.20;;;;;;5012826;28;20478;-73
2020/12/16 05:42:48;;;;;;;44.75;20.20;;;9.10;95.20;;;;;;5011345;28;20038;-74
2020/12/16 05:45:20;;;;;;;42.33;20.67;;;9.10;95.20;;;;;;4994854;28;20363;-74
2020/12/16 05:48:02;;;;;;;44.72;20.25;;;9.10;95.20;;;;;;4993169;28;20026;-74
2020/12/16 05:50:39;;;;;;;52.45;21.58;;;9.20;95.20;;;;;;5009479;28;20493;-74
2020/12/16 05:53:23;;;;;;;45.17;20.95;;;9.20;95.20;;;;;;5010437;28;20191;-74
2020/12/16 05:55:54;;;;;;;45.47;20.02;;;9.20;95.20;;;;;;4978890;28;20037;-74
2020/12/16 05:58:21;;;;;;;45.65;21.05;;;9.20;95.20;;;;;;4993183;28;20022;-74
2020/12/16 06:01:01;;;;;;;44.38;21.85;;;9.10;95.20;;;;;;5011171;28;20033;-74
2020/12/16 06:03:34;;;;;;;39.80;19.95;;;9.20;95.20;;;;;;4977281;28;20013;-74
2020/12/16 06:06:08;;;;;;;43.20;19.95;;;9.20;95.20;;;;;;4994202;28;20124;-74
2020/12/16 06:08:35;;;;;;;44.80;20.85;;;9.20;95.20;;;;;;4978116;28;20028;-73
2020/12/16 06:11:02;;;;;;;49.75;21.23;;;9.20;95.20;;;;;;5010330;28;20064;-74
2020/12/16 06:13:28;;;;;;;42.63;21.35;;;9.20;95.20;;;;;;4992576;28;20026;-74
2020/12/16 06:15:55;;;;;;;43.55;20.33;;;9.10;95.20;;;;;;5012662;28;20044;-73
2020/12/16 06:18:29;;;;;;;47.78;21.73;;;9.20;95.30;;;;;;4978290;28;20061;-73
2020/12/16 06:20:55;;;;;;;42.28;20.35;;;9.20;95.30;;;;;;4993410;28;20030;-73
2020/12/16 06:23:30;;;;;;;46.17;22.63;;;9.20;95.30;;;;;;4977619;28;20387;-73
2020/12/16 06:25:59;;;;;;;42.70;20.52;;;9.20;95.30;;;;;;5012402;28;20455;-73
2020/12/16 06:28:25;;;;;;;45.70;20.90;;;9.20;95.30;;;;;;5009646;28;20022;-73
2020/12/16 06:30:52;;;;;;;48.97;21.90;;;9.20;95.20;;;;;;4977732;28;20030;-73
2020/12/16 06:33:30;;;;;;;47.38;23.30;;;9.20;95.20;;;;;;5007896;28;20378;-73
2020/12/16 06:36:03;;;;;;;49.22;22.35;;;9.20;95.20;;;;;;4993553;28;20025;-73
2020/12/16 06:38:29;;;;;;;44.97;21.75;;;9.20;95.00;;;;;;5009747;28;20036;-73
2020/12/16 06:40:57;;;;;;;44.03;23.15;;;9.20;94.80;;;;;;4983146;28;20445;-73
2020/12/16 06:43:32;;;;;;;43.97;21.20;;;9.20;94.60;;;;;;5009775;28;20112;-73
2020/12/16 06:45:59;;;;;;;45.58;21.75;;;9.20;94.60;;;;;;5010783;28;20509;-73
2020/12/16 06:48:36;;;;;;;45.70;21.58;;;9.20;94.50;;;;;;4992302;28;20037;-73
2020/12/16 06:51:22;;;;;;;43.03;20.88;;;9.20;94.50;;;;;;5011640;28;20030;-74
2020/12/16 06:53:49;;;;;;;50.47;22.60;;;9.20;94.60;;;;;;4993271;28;20029;-74
2020/12/16 06:56:19;;;;;;;44.47;22.05;;;9.10;94.60;;;;;;5008279;28;20026;-74
2020/12/16 06:58:45;;;;;;;48.47;23.55;;;9.10;94.60;;;;;;4974709;28;20026;-74
2020/12/16 07:01:16;;;;;;;49.28;23.30;;;9.10;94.60;;;;;;4991674;28;20026;-73
2020/12/16 07:03:42;;;;;;;44.65;21.52;;;9.10;94.70;;;;;;5009263;28;20037;-74
2020/12/16 07:06:31;;;;;;;48.47;22.63;;;9.10;94.70;;;;;;4979423;28;20037;-75
2020/12/16 07:09:12;;;;;;;41.17;21.30;;;9.20;94.70;;;;;;4994492;28;20037;-74
2020/12/16 07:11:52;;;;;;;43.35;20.40;;;9.10;94.70;;;;;;4990262;28;20061;-73
2020/12/16 07:14:23;;;;;;;41.95;20.38;;;9.10;94.70;;;;;;5011038;28;20029;-73
2020/12/16 07:16:49;;;;;;;42.70;21.33;;;9.10;94.70;;;;;;4981856;28;20025;-75
2020/12/16 07:19:26;;;;;;;43.80;20.65;;;9.20;94.70;;;;;;4994069;28;20022;-75
2020/12/16 07:21:51;;;;;;;40.88;20.63;;;9.20;94.70;;;;;;4987551;28;20030;-75
2020/12/16 07:24:17;;;;;;;49.72;23.05;;;9.10;94.50;;;;;;5010411;28;20048;-74
2020/12/16 07:26:55;;;;;;;37.92;19.17;;;9.20;94.50;;;;;;4994764;28;20025;-76
2020/12/16 07:29:33;;;;;;;41.05;20.50;;;9.10;94.50;;;;;;4992653;28;20033;-74
2020/12/16 07:32:05;;;;;;;39.42;19.30;;;9.10;94.40;;;;;;4988196;28;20064;-74
2020/12/16 07:34:33;;;;;;;42.38;20.77;;;9.10;94.50;;;;;;4982226;28;20511;-75
2020/12/16 07:37:02;;;;;;;37.95;20.58;;;9.20;94.60;;;;;;4997750;28;20021;-73
2020/12/16 07:39:29;;;;;;;43.38;21.02;;;9.10;94.60;;;;;;4991534;28;20022;-73
2020/12/16 07:41:57;;;;;;;42.55;21.85;;;9.10;94.50;;;;;;5006652;28;20057;-74
2020/12/16 07:44:23;;;;;;;40.88;20.38;;;9.10;94.60;;;;;;4991066;28;20064;-75
2020/12/16 07:46:50;;;;;;;39.13;20.58;;;9.10;94.40;;;;;;4993350;28;20120;-73
2020/12/16 07:49:17;;;;;;;39.75;20.02;;;9.10;94.40;;;;;;4995043;28;20029;-75
2020/12/16 07:51:44;;;;;;;42.78;20.33;;;9.10;94.40;;;;;;4984669;28;20037;-74
2020/12/16 07:54:10;;;;;;;42.25;20.40;;;9.10;94.30;;;;;;5008204;28;20025;-74
2020/12/16 07:56:36;;;;;;;36.15;18.42;;;9.10;94.10;;;;;;5009735;28;20030;-75
2020/12/16 07:59:09;;;;;;;39.78;19.55;;;9.10;93.90;;;;;;4975415;28;20580;-73
2020/12/16 08:01:35;;;;;;;40.15;19.65;;;9.10;94.00;;;;;;4988184;28;20053;-74
2020/12/16 08:04:00;;;;;;;34.72;18.92;;;9.10;93.90;;;;;;5012153;28;20026;-73
2020/12/16 08:06:29;;;;;;;39.30;18.08;;;9.10;93.70;;;;;;5000855;28;20418;-73
2020/12/16 08:08:57;;;;;;;37.47;18.90;;;9.10;93.50;;;;;;4990753;28;20087;-72
2020/12/16 08:11:30;;;;;;;37.45;19.00;;;9.00;93.50;;;;;;5012561;28;20048;-74
2020/12/16 08:14:07;;;;;;;34.72;18.35;;;9.00;93.20;;;;;;4996452;28;20022;-73
2020/12/16 08:16:34;;;;;;;45.22;19.40;;;9.00;93.50;;;;;;5002110;28;20022;-73
2020/12/16 08:19:01;;;;;;;38.88;19.38;;;9.00;93.50;;;;;;4995098;28;20022;-72
2020/12/16 08:21:27;;;;;;;43.22;21.10;;;9.00;93.50;;;;;;4997303;28;20033;-72
2020/12/16 08:23:55;;;;;;;49.78;20.70;;;8.90;93.70;;;;;;5014564;28;20096;-73
2020/12/16 08:26:23;;;;;;;48.03;21.42;;;8.90;93.90;;;;;;5014261;28;20033;-72
2020/12/16 08:28:50;;;;;;;43.53;21.38;;;8.90;93.80;;;;;;5012106;28;20449;-72
2020/12/16 08:31:21;;;;;;;46.28;23.45;;;8.90;93.90;;;;;;4996769;28;20080;-72
2020/12/16 08:33:49;;;;;;;57.38;24.65;;;8.90;93.90;;;;;;4993548;28;20041;-72
2020/12/16 08:36:24;;;;;;;51.88;25.88;;;8.90;93.90;;;;;;5012930;28;20022;-72
2020/12/16 08:38:51;;;;;;;60.20;27.42;;;8.90;94.00;;;;;;5012821;28;20488;-72
2020/12/16 08:41:28;;;;;;;74.68;31.02;;;8.80;94.00;;;;;;5007962;28;20022;-72
2020/12/16 08:43:55;;;;;;;79.10;31.48;;;8.80;93.90;;;;;;4994559;28;20079;-73
2020/12/16 08:46:26;;;;;;;78.72;33.35;;;8.70;94.10;;;;;;5012438;28;20045;-72
2020/12/16 08:48:56;;;;;;;78.38;30.88;;;8.70;94.10;;;;;;4996688;28;20022;-72
2020/12/16 08:51:31;;;;;;;63.70;28.45;;;8.70;94.30;;;;;;5017125;28;20034;-72
2020/12/16 08:54:06;;;;;;;61.65;26.67;;;8.70;94.10;;;;;;5019067;28;20068;-73
2020/12/16 08:56:42;;;;;;;61.28;25.73;;;8.60;94.10;;;;;;5010400;28;20070;-73
2020/12/16 08:59:35;;;;;;;62.90;26.13;;;8.50;94.10;;;;;;4977460;28;20077;-74
2020/12/16 09:02:01;;;;;;;58.28;24.00;;;8.50;94.30;;;;;;4998906;28;20510;-74
2020/12/16 09:04:30;;;;;;;53.78;24.30;;;8.50;94.40;;;;;;5015388;28;20120;-74
2020/12/16 09:07:05;;;;;;;52.05;22.30;;;8.50;94.40;;;;;;4995195;28;20030;-73
2020/12/16 09:09:31;;;;;;;51.35;23.15;;;8.40;94.20;;;;;;4998272;28;20030;-72
2020/12/16 09:11:57;;;;;;;49.75;22.65;;;8.40;94.30;;;;;;4991122;28;20034;-72
2020/12/16 09:14:23;;;;;;;57.75;23.08;;;8.30;94.30;;;;;;4993426;28;20026;-73
2020/12/16 09:16:50;;;;;;;55.00;24.83;;;8.30;94.50;;;;;;4980087;28;20355;-72
2020/12/16 09:19:22;;;;;;;53.95;23.98;;;8.30;94.50;;;;;;5012777;28;20033;-72
2020/12/16 09:21:49;;;;;;;54.08;23.55;;;8.20;94.40;;;;;;4982334;28;20046;-73
2020/12/16 09:24:19;;;;;;;50.55;22.25;;;8.20;94.50;;;;;;5005973;28;20025;-73
2020/12/16 09:26:46;;;;;;;50.75;22.45;;;8.20;94.60;;;;;;5026551;28;20049;-73
2020/12/16 09:29:17;;;;;;;51.65;23.77;;;8.20;94.60;;;;;;5008872;28;21364;-73
2020/12/16 09:31:43;;;;;;;53.85;23.50;;;8.20;94.70;;;;;;5019254;28;20042;-74
2020/12/16 09:34:09;;;;;;;51.65;22.48;;;8.20;94.80;;;;;;4992737;28;20052;-75
2020/12/16 09:36:35;;;;;;;55.17;22.85;;;8.20;94.80;;;;;;5013139;28;20509;-74
2020/12/16 09:39:09;;;;;;;53.30;23.02;;;8.20;94.80;;;;;;5011137;28;20513;-75
2020/12/16 09:41:49;;;;;;;55.10;23.60;;;8.30;94.70;;;;;;5025182;28;20045;-75
2020/12/16 09:44:31;;;;;;;53.83;24.50;;;8.30;94.80;;;;;;5026016;28;20036;-74
2020/12/16 09:47:18;;;;;;;58.97;25.33;;;8.30;94.80;;;;;;5021956;28;20267;-75
2020/12/16 09:49:46;;;;;;;64.88;24.48;;;8.30;94.60;;;;;;4989013;28;20157;-75
2020/12/16 09:52:33;;;;;;;57.28;25.52;;;8.50;96.10;;;;;;4990439;28;20029;-74
2020/12/16 09:55:15;;;;;;;50.15;22.10;;;8.70;95.50;;;;;;4999056;28;20549;-74
2020/12/16 09:57:44;;;;;;;44.75;20.88;;;8.80;94.10;;;;;;5008949;28;20044;-74
2020/12/16 10:00:11;;;;;;;44.03;21.73;;;8.70;93.30;;;;;;4992102;28;20033;-73
2020/12/16 10:02:36;;;;;;;51.95;22.48;;;8.70;93.60;;;;;;4976559;28;20026;-74
2020/12/16 10:05:04;;;;;;;51.63;23.60;;;8.60;93.80;;;;;;4996977;28;20057;-74
2020/12/16 10:07:33;;;;;;;53.25;21.80;;;8.60;93.70;;;;;;5026721;28;20029;-73
2020/12/16 10:10:03;;;;;;;50.97;22.58;;;8.50;94.00;;;;;;5007882;28;20068;-75
2020/12/16 10:12:29;;;;;;;54.67;22.20;;;8.50;94.10;;;;;;5002670;28;20029;-74
2020/12/16 10:14:55;;;;;;;50.67;22.38;;;8.50;94.00;;;;;;4985636;28;20030;-75
2020/12/16 10:17:24;;;;;;;57.75;24.63;;;8.50;94.60;;;;;;4980824;28;20055;-74
2020/12/16 10:19:50;;;;;;;55.53;22.85;;;8.50;94.10;;;;;;4978090;28;21693;-74
2020/12/16 10:22:16;;;;;;;54.17;23.27;;;8.50;93.90;;;;;;5009768;28;20026;-74
2020/12/16 10:24:42;;;;;;;50.45;21.50;;;8.50;93.70;;;;;;5011120;28;20029;-75
2020/12/16 10:27:08;;;;;;;51.33;22.58;;;8.50;93.90;;;;;;4978902;28;20037;-74
2020/12/16 10:29:34;;;;;;;55.53;22.45;;;8.50;93.80;;;;;;4980643;28;20033;-74
2020/12/16 10:31:59;;;;;;;47.95;20.98;;;8.40;93.80;;;;;;5009281;28;20050;-75
2020/12/16 10:34:25;;;;;;;61.38;22.90;;;8.40;94.00;;;;;;5005649;28;20034;-74
2020/12/16 10:36:52;;;;;;;52.55;21.70;;;8.40;93.80;;;;;;4998320;28;20021;-75
2020/12/16 10:39:22;;;;;;;54.38;22.63;;;8.40;93.70;;;;;;5000482;28;20110;-75
2020/12/16 10:41:58;;;;;;;56.97;22.92;;;8.30;93.90;;;;;;4978745;28;20381;-75
2020/12/16 10:44:27;;;;;;;56.20;21.40;;;8.30;93.90;;;;;;4993303;28;20117;-75
2020/12/16 10:46:54;;;;;;;48.92;19.75;;;8.30;94.00;;;;;;4993164;28;20076;-74
2020/12/16 10:49:22;;;;;;;47.75;19.08;;;8.30;93.60;;;;;;5009612;28;20022;-74
2020/12/16 10:51:48;;;;;;;47.55;19.38;;;8.30;93.90;;;;;;5005910;28;20041;-74
2020/12/16 10:54:14;;;;;;;45.10;19.17;;;8.30;93.90;;;;;;4975769;28;20037;-74
2020/12/16 10:56:40;;;;;;;42.20;19.45;;;8.50;94.40;;;;;;4990312;28;20095;-74
2020/12/16 10:59:05;;;;;;;40.90;17.85;;;8.50;93.60;;;;;;5006641;28;20029;-74
2020/12/16 11:01:38;;;;;;;46.67;20.10;;;8.50;93.20;;;;;;4971719;28;20026;-74
2020/12/16 11:04:07;;;;;;;43.45;18.95;;;8.40;93.50;;;;;;4991251;28;20053;-74
2020/12/16 11:06:43;;;;;;;48.33;20.35;;;8.30;93.50;;;;;;5008493;28;20029;-74
2020/12/16 11:09:09;;;;;;;53.35;20.80;;;8.20;93.50;;;;;;4997711;28;20037;-74
2020/12/16 11:11:40;;;;;;;49.97;20.25;;;8.20;93.70;;;;;;4988518;28;20061;-74
2020/12/16 11:14:06;;;;;;;47.00;19.00;;;8.20;93.90;;;;;;4990622;28;20022;-74
2020/12/16 11:16:32;;;;;;;50.88;19.95;;;8.20;93.80;;;;;;5008082;28;20522;-74
2020/12/16 11:18:58;;;;;;;46.72;18.10;;;8.10;94.00;;;;;;5010202;28;20122;-75
2020/12/16 11:21:25;;;;;;;48.50;19.75;;;8.20;94.00;;;;;;4975434;28;20032;-72
2020/12/16 11:23:51;;;;;;;51.05;21.08;;;8.20;94.10;;;;;;5010601;28;20030;-74
2020/12/16 11:26:17;;;;;;;50.20;19.85;;;8.20;94.00;;;;;;5012724;28;20041;-73
2020/12/16 11:28:42;;;;;;;46.00;18.88;;;8.10;94.20;;;;;;4993721;28;20032;-72
2020/12/16 11:31:08;;;;;;;48.13;19.60;;;8.10;94.20;;;;;;4974881;28;20034;-73
2020/12/16 11:33:34;;;;;;;55.55;20.33;;;8.10;94.30;;;;;;4990741;28;20439;-74
2020/12/16 11:35:59;;;;;;;56.10;21.20;;;8.10;94.20;;;;;;5009715;28;20026;-74
2020/12/16 11:38:25;;;;;;;53.65;21.67;;;8.10;94.30;;;;;;5004904;28;20029;-74
2020/12/16 11:40:51;;;;;;;53.75;20.13;;;8.10;94.30;;;;;;4990949;28;20022;-74
2020/12/16 11:43:17;;;;;;;49.92;19.10;;;8.10;94.40;;;;;;5009516;28;20654;-74
2020/12/16 11:45:44;;;;;;;62.55;20.88;;;8.20;94.40;;;;;;4991589;28;20128;-74
2020/12/16 11:48:10;;;;;;;585.63;309.95;;;8.20;94.50;;;;;;4992541;28;20486;-74
2020/12/16 11:50:36;;;;;;;147.95;75.28;;;8.20;94.70;;;;;;4993148;28;20057;-76
2020/12/16 11:53:02;;;;;;;225.65;96.43;;;8.30;94.70;;;;;;5007051;28;20033;-75
2020/12/16 11:55:28;;;;;;;107.25;51.13;;;8.40;94.40;;;;;;5007798;28;20030;-73
2020/12/16 11:57:53;;;;;;;61.00;20.80;;;8.40;94.50;;;;;;5008676;28;20034;-75
2020/12/16 12:00:19;;;;;;;57.30;22.27;;;8.40;94.40;;;;;;4973133;28;20116;-75
2020/12/16 12:02:45;;;;;;;55.20;21.02;;;8.40;94.20;;;;;;5005875;28;20033;-75
2020/12/16 12:05:13;;;;;;;62.15;21.92;;;8.40;94.30;;;;;;4976066;28;20057;-74
2020/12/16 12:07:39;;;;;;;62.42;23.33;;;8.40;94.40;;;;;;4974670;28;20025;-73
2020/12/16 12:10:05;;;;;;;65.85;22.98;;;8.40;94.40;;;;;;4990666;28;20128;-72
2020/12/16 12:12:30;;;;;;;61.55;23.63;;;8.40;94.40;;;;;;4990067;28;20022;-73
2020/12/16 12:14:56;;;;;;;58.47;21.65;;;8.40;94.40;;;;;;5006982;28;20504;-73
2020/12/16 12:17:22;;;;;;;68.05;24.50;;;8.30;94.50;;;;;;5008030;28;20541;-73
2020/12/16 12:19:48;;;;;;;59.95;22.13;;;8.40;94.40;;;;;;4990819;28;20157;-74
2020/12/16 12:22:14;;;;;;;59.67;22.02;;;8.30;94.50;;;;;;4991339;28;20030;-74
2020/12/16 12:24:40;;;;;;;64.32;24.30;;;8.30;94.70;;;;;;4974396;28;20041;-73
2020/12/16 12:27:06;;;;;;;58.92;22.35;;;8.40;94.60;;;;;;5006884;28;20475;-73
2020/12/16 12:29:32;;;;;;;65.00;23.63;;;8.40;94.60;;;;;;5005178;28;20126;-76
2020/12/16 12:31:58;;;;;;;62.88;23.08;;;8.40;94.50;;;;;;5004967;28;20042;-72
2020/12/16 12:34:23;;;;;;;63.90;24.05;;;8.40;94.50;;;;;;5004818;28;20413;-73
2020/12/16 12:36:49;;;;;;;66.25;23.85;;;8.40;94.60;;;;;;4991183;28;20061;-73
2020/12/16 12:39:15;;;;;;;65.57;24.20;;;8.40;94.60;;;;;;5007117;28;20072;-73
2020/12/16 12:41:41;;;;;;;63.05;24.25;;;8.40;94.60;;;;;;4989838;28;20064;-73
2020/12/16 12:44:06;;;;;;;65.43;25.02;;;8.40;94.60;;;;;;4990864;28;20070;-73